Time;durP1;ratioP1;P1;durP2;ratioP2;P2;SDS_P1;SDS_P2;PMS_P1;PMS_P2;Temp;Humidity;BMP_temperature;BMP_pressure;BME280_temperature;BME280_humidity;BME280_pressure;Samples;Min_cycle;Max_cycle;Signal;HPM_P1;HPM_P2
2021/07/30 00:00:29;;;;;;;13.80;3.78;;;14.20;99.90;;;;;;5064298;28;20072;-81
2021/07/30 00:02:55;;;;;;;10.25;3.75;;;14.20;99.90;;;;;;5064211;28;20051;-82
2021/07/30 00:05:21;;;;;;;11.95;3.72;;;14.20;99.90;;;;;;5064463;28;20036;-83
2021/07/30 00:07:46;;;;;;;12.30;4.65;;;14.20;99.90;;;;;;5062946;28;20059;-81
2021/07/30 00:10:12;;;;;;;8.98;3.70;;;14.10;99.90;;;;;;5064865;28;20083;-83
2021/07/30 00:12:38;;;;;;;15.98;5.40;;;14.10;99.90;;;;;;5063254;28;20051;-83
2021/07/30 00:15:06;;;;;;;8.52;4.10;;;14.10;99.90;;;;;;5064139;28;20033;-82
2021/07/30 00:17:33;;;;;;;8.07;4.78;;;14.00;99.90;;;;;;5063631;28;20117;-81
2021/07/30 00:20:04;;;;;;;16.60;5.22;;;14.10;99.90;;;;;;5062726;28;20504;-81
2021/07/30 00:22:29;;;;;;;8.98;4.53;;;14.00;99.90;;;;;;5064387;28;20040;-82
2021/07/30 00:24:55;;;;;;;12.25;5.03;;;14.00;99.90;;;;;;5063701;28;20157;-81
2021/07/30 00:27:20;;;;;;;9.85;5.15;;;13.90;99.90;;;;;;5062688;28;21464;-82
2021/07/30 00:29:46;;;;;;;10.48;4.95;;;13.90;99.90;;;;;;5064004;28;20043;-82
2021/07/30 00:32:12;;;;;;;13.10;4.43;;;13.90;99.90;;;;;;5063301;28;20180;-82
2021/07/30 00:34:37;;;;;;;11.73;5.18;;;13.90;99.90;;;;;;5063562;28;20498;-81
2021/07/30 00:37:03;;;;;;;16.02;5.72;;;13.90;99.90;;;;;;5063185;28;20494;-81
2021/07/30 00:39:29;;;;;;;9.02;5.13;;;13.90;99.90;;;;;;5061754;28;20044;-81
2021/07/30 00:41:55;;;;;;;10.85;5.35;;;13.80;99.90;;;;;;5063401;28;20040;-80
2021/07/30 00:44:21;;;;;;;11.10;5.20;;;13.80;99.90;;;;;;5063168;28;20047;-81
2021/07/30 00:46:46;;;;;;;10.93;4.90;;;13.70;99.90;;;;;;5063092;28;20047;-81
2021/07/30 00:49:13;;;;;;;13.18;5.65;;;13.70;99.90;;;;;;5067125;28;20051;-82
2021/07/30 00:51:38;;;;;;;15.98;5.68;;;13.60;99.90;;;;;;5066971;28;20704;-82
2021/07/30 00:54:04;;;;;;;11.43;6.03;;;13.70;99.90;;;;;;5068161;28;20033;-81
2021/07/30 00:56:31;;;;;;;9.90;5.25;;;13.60;99.90;;;;;;5067804;28;20788;-80
2021/07/30 00:58:58;;;;;;;10.30;5.55;;;13.70;99.90;;;;;;5066731;28;20044;-81
2021/07/30 01:01:24;;;;;;;10.18;6.20;;;13.60;99.90;;;;;;5066758;28;20513;-81
2021/07/30 01:03:50;;;;;;;11.88;5.65;;;13.60;99.90;;;;;;5066231;28;20041;-81
2021/07/30 01:06:15;;;;;;;12.75;6.07;;;13.60;99.90;;;;;;5067107;28;20051;-82
2021/07/30 01:08:41;;;;;;;12.43;5.43;;;13.60;99.90;;;;;;5066072;28;20037;-81
2021/07/30 01:11:07;;;;;;;12.73;5.72;;;13.60;99.90;;;;;;5064546;28;20194;-80
2021/07/30 01:13:32;;;;;;;9.73;5.80;;;13.60;99.90;;;;;;5067794;28;20044;-82
2021/07/30 01:15:59;;;;;;;12.52;6.18;;;13.50;99.90;;;;;;5066870;28;20039;-81
2021/07/30 01:18:24;;;;;;;11.20;5.97;;;13.50;99.90;;;;;;5068096;28;20043;-81
2021/07/30 01:21:18;;;;;;;16.75;6.20;;;13.50;99.90;;;;;;5066748;28;20044;-82
2021/07/30 01:23:45;;;;;;;11.00;6.60;;;13.50;99.90;;;;;;5065643;28;20040;-81
2021/07/30 01:26:11;;;;;;;8.63;6.32;;;13.40;99.90;;;;;;5066766;28;20048;-81
2021/07/30 01:28:36;;;;;;;10.02;6.47;;;13.50;99.90;;;;;;5065602;28;20040;-82
2021/07/30 01:31:04;;;;;;;11.80;6.20;;;13.40;99.90;;;;;;5065210;28;20037;-81
2021/07/30 01:33:30;;;;;;;12.20;6.50;;;13.40;99.90;;;;;;5065730;28;20059;-80
2021/07/30 01:35:56;;;;;;;12.38;6.28;;;13.40;99.90;;;;;;5066393;28;20176;-81
2021/07/30 01:38:21;;;;;;;8.80;5.95;;;13.40;99.90;;;;;;5066976;28;20033;-82
2021/07/30 01:40:47;;;;;;;11.43;6.50;;;13.40;99.90;;;;;;5065950;28;20509;-82
2021/07/30 01:43:13;;;;;;;16.45;6.53;;;13.60;99.90;;;;;;5067210;28;20135;-81
2021/07/30 01:45:39;;;;;;;10.43;6.00;;;13.40;99.90;;;;;;5066346;28;20045;-82
2021/07/30 01:48:05;;;;;;;14.48;7.05;;;13.40;99.90;;;;;;5066407;28;20136;-81
2021/07/30 01:50:30;;;;;;;15.23;6.43;;;13.40;99.90;;;;;;5067174;28;20105;-82
2021/07/30 01:52:56;;;;;;;12.55;6.15;;;13.40;99.90;;;;;;5067013;28;20545;-82
2021/07/30 01:55:24;;;;;;;15.20;7.45;;;13.40;99.90;;;;;;5065777;28;20138;-83
2021/07/30 01:57:50;;;;;;;9.90;5.55;;;13.30;99.90;;;;;;5065620;28;20172;-82
2021/07/30 02:00:16;;;;;;;10.38;5.93;;;13.30;99.90;;;;;;5063589;28;20036;-83
2021/07/30 02:02:42;;;;;;;12.32;6.50;;;13.20;99.90;;;;;;5067215;28;20035;-82
2021/07/30 02:05:08;;;;;;;13.90;7.22;;;13.10;99.90;;;;;;5066675;28;20474;-82
2021/07/30 02:07:37;;;;;;;14.75;6.78;;;13.10;99.90;;;;;;5066657;28;20032;-83
2021/07/30 02:10:07;;;;;;;12.32;6.80;;;13.10;99.90;;;;;;5066221;28;20115;-83
2021/07/30 02:14:14;;;;;;;17.08;7.18;;;13.10;99.90;;;;;;5065945;28;20040;-83
2021/07/30 02:15:20;;;;;;;17.83;7.95;;;13.10;99.90;;;;;;5066966;28;20132;-82
2021/07/30 02:17:45;;;;;;;14.45;7.15;;;13.10;99.90;;;;;;5065148;28;20033;-82
2021/07/30 02:20:11;;;;;;;11.65;6.53;;;13.10;99.90;;;;;;5066336;28;20521;-82
2021/07/30 02:22:37;;;;;;;13.75;7.20;;;13.10;99.90;;;;;;5066425;28;20036;-82
2021/07/30 02:25:03;;;;;;;16.85;7.60;;;13.20;99.90;;;;;;5064744;28;20470;-82
2021/07/30 02:27:31;;;;;;;18.58;7.60;;;13.20;99.90;;;;;;5066569;28;20925;-82
2021/07/30 02:29:57;;;;;;;17.80;7.82;;;13.20;99.90;;;;;;5065816;28;20145;-82
2021/07/30 02:32:23;;;;;;;14.88;7.30;;;13.20;99.90;;;;;;5068384;28;20483;-82
2021/07/30 02:34:48;;;;;;;17.20;7.25;;;13.20;99.90;;;;;;5068206;28;20037;-82
2021/07/30 02:37:14;;;;;;;11.15;7.05;;;13.20;99.90;;;;;;5068976;28;20037;-81
2021/07/30 02:39:39;;;;;;;12.10;6.80;;;13.20;99.90;;;;;;5068835;28;20071;-82
2021/07/30 02:42:05;;;;;;;14.05;8.05;;;13.20;99.90;;;;;;5069665;28;20482;-83
2021/07/30 02:44:31;;;;;;;16.25;7.22;;;13.20;99.90;;;;;;5070217;28;20040;-83
2021/07/30 02:46:57;;;;;;;12.93;8.27;;;13.20;99.90;;;;;;5069091;28;20379;-83
2021/07/30 02:49:23;;;;;;;13.95;7.28;;;13.20;99.90;;;;;;5070073;28;20067;-82
2021/07/30 02:51:49;;;;;;;12.73;8.30;;;13.20;99.90;;;;;;5069255;28;20490;-82
2021/07/30 02:54:14;;;;;;;13.43;8.05;;;13.20;99.90;;;;;;5067940;28;20047;-83
2021/07/30 02:56:40;;;;;;;13.68;8.10;;;13.20;99.90;;;;;;5068556;28;20086;-83
2021/07/30 02:59:05;;;;;;;14.00;8.35;;;13.20;99.90;;;;;;5067289;28;20175;-83
2021/07/30 03:01:31;;;;;;;13.48;8.20;;;13.20;99.90;;;;;;5068831;28;20490;-83
2021/07/30 03:03:57;;;;;;;15.95;8.23;;;13.20;99.90;;;;;;5066668;28;20980;-83
2021/07/30 03:06:23;;;;;;;13.90;8.18;;;13.20;99.90;;;;;;5067286;28;20038;-84
2021/07/30 03:08:48;;;;;;;14.35;7.97;;;13.20;99.90;;;;;;5068720;28;20036;-83
2021/07/30 03:11:14;;;;;;;19.42;8.82;;;13.10;99.90;;;;;;5067988;28;20429;-83
2021/07/30 03:13:40;;;;;;;19.15;8.68;;;13.20;99.90;;;;;;5066789;28;20099;-83
2021/07/30 03:16:06;;;;;;;18.23;8.38;;;13.10;99.90;;;;;;5068107;28;20483;-83
2021/07/30 03:18:32;;;;;;;20.67;8.55;;;13.10;99.90;;;;;;5069760;28;20033;-83
2021/07/30 03:20:58;;;;;;;16.17;8.95;;;13.10;99.90;;;;;;5067257;28;20048;-83
2021/07/30 03:23:24;;;;;;;15.60;8.95;;;13.10;99.90;;;;;;5068416;28;20046;-83
2021/07/30 03:25:49;;;;;;;18.02;8.20;;;13.10;99.90;;;;;;5068265;28;20066;-83
2021/07/30 03:28:15;;;;;;;14.05;8.45;;;13.00;99.90;;;;;;5067557;28;20086;-83
2021/07/30 03:30:46;;;;;;;11.70;8.80;;;13.10;99.90;;;;;;5068309;28;20052;-83
2021/07/30 03:33:12;;;;;;;14.27;8.80;;;13.10;99.90;;;;;;5068853;28;20417;-84
2021/07/30 03:35:39;;;;;;;16.10;8.63;;;13.10;99.90;;;;;;5068035;28;20037;-83
2021/07/30 03:38:05;;;;;;;20.13;10.05;;;13.00;99.90;;;;;;5065027;28;20426;-83
2021/07/30 03:40:31;;;;;;;16.92;8.38;;;13.00;99.90;;;;;;5067293;28;20049;-83
2021/07/30 03:42:57;;;;;;;15.00;9.05;;;13.00;99.90;;;;;;5066873;28;20068;-84
2021/07/30 03:45:23;;;;;;;18.15;8.20;;;13.00;99.90;;;;;;5068635;28;20045;-84
2021/07/30 03:47:49;;;;;;;17.27;10.05;;;13.00;99.90;;;;;;5066884;28;20029;-84
2021/07/30 03:50:15;;;;;;;12.05;8.02;;;13.00;99.90;;;;;;5068757;28;20044;-83
2021/07/30 03:52:41;;;;;;;13.00;8.13;;;13.00;99.90;;;;;;5067989;28;20037;-83
2021/07/30 03:55:07;;;;;;;15.05;8.45;;;13.00;99.90;;;;;;5066803;28;20445;-84
2021/07/30 03:57:33;;;;;;;13.75;8.43;;;13.00;99.90;;;;;;5068132;28;20079;-84
2021/07/30 03:59:59;;;;;;;18.52;9.25;;;13.00;99.90;;;;;;5066704;28;20041;-84
2021/07/30 04:02:25;;;;;;;19.52;9.23;;;13.00;99.90;;;;;;5068264;28;20055;-84
2021/07/30 04:04:50;;;;;;;15.35;9.10;;;13.00;99.90;;;;;;5066144;28;20482;-84
2021/07/30 04:07:16;;;;;;;15.43;8.18;;;13.00;99.90;;;;;;5066440;28;20055;-84
2021/07/30 04:09:42;;;;;;;14.45;8.57;;;13.00;99.90;;;;;;5065203;28;20132;-84
2021/07/30 04:12:09;;;;;;;16.38;8.52;;;13.00;99.90;;;;;;5067893;28;20048;-84
2021/07/30 04:14:35;;;;;;;22.48;8.85;;;13.00;99.90;;;;;;5067775;28;20040;-84
2021/07/30 04:17:01;;;;;;;13.48;8.40;;;13.10;99.90;;;;;;5064995;28;20037;-84
2021/07/30 04:19:27;;;;;;;15.07;8.80;;;13.00;99.90;;;;;;5068578;28;20044;-84
2021/07/30 04:21:52;;;;;;;11.77;8.05;;;13.10;99.90;;;;;;5067704;28;20505;-84
2021/07/30 04:24:18;;;;;;;19.50;8.30;;;13.10;99.90;;;;;;5064795;28;20740;-83
2021/07/30 04:26:44;;;;;;;20.50;8.85;;;13.10;99.90;;;;;;5064862;28;20528;-84
2021/07/30 04:29:10;;;;;;;13.48;9.27;;;13.20;99.90;;;;;;5067865;28;20063;-84
2021/07/30 04:31:40;;;;;;;14.38;8.32;;;13.20;99.90;;;;;;5067732;28;20723;-84
2021/07/30 04:34:09;;;;;;;15.60;8.38;;;13.20;99.90;;;;;;5064686;28;20044;-84
2021/07/30 04:36:34;;;;;;;10.95;8.35;;;13.30;99.90;;;;;;5065193;28;20040;-84
2021/07/30 04:39:00;;;;;;;16.90;7.57;;;13.20;99.90;;;;;;5065671;28;20033;-84
2021/07/30 04:41:26;;;;;;;16.13;8.35;;;13.30;99.90;;;;;;5064922;28;20108;-84
2021/07/30 04:43:52;;;;;;;15.70;7.38;;;13.40;99.90;;;;;;5068468;28;20140;-84
2021/07/30 04:46:30;;;;;;;12.30;7.82;;;13.40;99.90;;;;;;5069163;28;20460;-84
2021/07/30 04:48:56;;;;;;;9.43;7.20;;;13.50;99.90;;;;;;5065831;28;20040;-84
2021/07/30 04:51:21;;;;;;;13.00;7.00;;;13.50;99.90;;;;;;5068735;28;20040;-84
2021/07/30 04:53:49;;;;;;;14.85;7.78;;;13.50;99.90;;;;;;5067146;28;20036;-84
2021/07/30 04:56:21;;;;;;;19.48;8.13;;;13.50;99.90;;;;;;5064382;28;20045;-84
2021/07/30 04:58:47;;;;;;;17.70;7.47;;;13.50;99.90;;;;;;5065235;28;20185;-84
2021/07/30 05:01:13;;;;;;;14.93;7.75;;;13.60;99.90;;;;;;5066827;28;20036;-85
2021/07/30 05:03:39;;;;;;;22.58;8.25;;;13.70;99.90;;;;;;5063347;28;20032;-84
2021/07/30 05:06:17;;;;;;;12.23;8.00;;;13.70;99.90;;;;;;5065939;28;20037;-84
2021/07/30 05:08:43;;;;;;;14.65;7.82;;;13.80;99.90;;;;;;5066794;28;20117;-84
2021/07/30 05:11:12;;;;;;;12.52;7.85;;;13.90;99.90;;;;;;5067107;28;20036;-85
2021/07/30 05:13:41;;;;;;;14.90;7.70;;;13.90;99.90;;;;;;5065908;28;20059;-85
2021/07/30 05:16:13;;;;;;;13.95;7.10;;;14.30;99.90;;;;;;5066346;28;20083;-85
2021/07/30 05:18:39;;;;;;;10.50;6.47;;;14.90;99.90;;;;;;5066176;28;20170;-84
2021/07/30 05:21:08;;;;;;;8.98;5.68;;;16.10;99.90;;;;;;5065499;28;20028;-84
2021/07/30 05:23:34;;;;;;;10.45;5.32;;;17.50;99.90;;;;;;5067127;28;20115;-83
2021/07/30 05:26:00;;;;;;;9.85;5.45;;;18.80;99.90;;;;;;5062473;28;20033;-84
2021/07/30 05:28:28;;;;;;;11.50;5.05;;;20.00;99.90;;;;;;5062048;28;20076;-83
2021/07/30 05:30:59;;;;;;;10.40;4.80;;;21.20;98.30;;;;;;5062464;28;21060;-84
2021/07/30 05:33:26;;;;;;;9.23;4.50;;;21.90;95.50;;;;;;5063474;28;20089;-84
2021/07/30 05:35:52;;;;;;;10.40;4.63;;;22.40;94.70;;;;;;5063195;28;20104;-83
2021/07/30 05:38:18;;;;;;;8.73;4.47;;;23.00;92.50;;;;;;5066540;28;20036;-83
2021/07/30 05:40:44;;;;;;;16.08;4.22;;;23.60;91.50;;;;;;5066290;28;20053;-82
2021/07/30 05:43:10;;;;;;;12.82;4.82;;;24.00;89.00;;;;;;5069592;28;20036;-84
2021/07/30 05:45:36;;;;;;;12.13;4.75;;;24.70;85.90;;;;;;5069344;28;20043;-83
2021/07/30 05:48:02;;;;;;;21.17;4.30;;;25.50;82.60;;;;;;5068827;28;21019;-84
2021/07/30 05:50:28;;;;;;;13.32;4.63;;;26.00;75.80;;;;;;5070759;28;20040;-83
2021/07/30 05:52:53;;;;;;;10.43;4.20;;;25.80;72.20;;;;;;5067756;28;20113;-83
2021/07/30 05:55:19;;;;;;;8.70;4.10;;;25.50;73.80;;;;;;5070626;28;20474;-84
2021/07/30 05:57:45;;;;;;;9.95;4.30;;;25.00;72.70;;;;;;5069657;28;20040;-84
2021/07/30 06:00:11;;;;;;;14.00;4.70;;;24.60;75.20;;;;;;5070239;28;20083;-84
2021/07/30 06:02:37;;;;;;;9.13;4.40;;;24.00;77.00;;;;;;5064936;28;20098;-84
2021/07/30 06:05:03;;;;;;;15.13;5.45;;;23.40;79.20;;;;;;5070342;28;20036;-83
2021/07/30 06:07:28;;;;;;;11.70;4.82;;;22.80;83.20;;;;;;5070487;28;20405;-84
2021/07/30 06:09:54;;;;;;;7.20;4.40;;;22.20;86.80;;;;;;5067354;28;20037;-83
2021/07/30 06:12:20;;;;;;;8.77;4.43;;;21.80;91.10;;;;;;5069930;28;20458;-83
2021/07/30 06:14:46;;;;;;;17.48;4.93;;;21.60;92.30;;;;;;5068943;28;20068;-83
2021/07/30 06:17:12;;;;;;;11.82;4.55;;;21.30;93.00;;;;;;5065369;28;20032;-83
2021/07/30 06:19:38;;;;;;;15.02;5.32;;;21.10;93.90;;;;;;5066553;28;20076;-83
2021/07/30 06:22:04;;;;;;;10.23;4.80;;;20.80;94.40;;;;;;5066882;28;20043;-83
2021/07/30 06:24:29;;;;;;;10.85;4.57;;;20.80;95.40;;;;;;5066300;28;20721;-83
2021/07/30 06:26:55;;;;;;;13.23;5.35;;;20.90;95.80;;;;;;5065242;28;20036;-82
2021/07/30 06:29:21;;;;;;;16.17;5.03;;;20.90;96.10;;;;;;5065869;28;20043;-83
2021/07/30 06:31:46;;;;;;;11.82;5.13;;;20.80;96.30;;;;;;5064656;28;20066;-83
2021/07/30 06:34:13;;;;;;;11.43;5.03;;;20.80;96.50;;;;;;5065323;28;20056;-82
2021/07/30 06:36:38;;;;;;;10.68;5.13;;;20.80;96.30;;;;;;5064700;28;20033;-83
2021/07/30 06:39:04;;;;;;;12.18;5.07;;;20.70;96.20;;;;;;5065009;28;20044;-84
2021/07/30 06:41:31;;;;;;;10.88;4.63;;;20.80;96.60;;;;;;5061992;28;20044;-83
2021/07/30 06:43:57;;;;;;;12.07;5.60;;;21.00;96.30;;;;;;5062362;28;20146;-83
2021/07/30 06:46:22;;;;;;;13.88;4.63;;;21.00;96.30;;;;;;5063666;28;20032;-82
2021/07/30 06:48:49;;;;;;;7.72;4.35;;;20.80;96.20;;;;;;5063389;28;20044;-83
2021/07/30 06:51:15;;;;;;;12.38;5.03;;;21.00;96.40;;;;;;5062710;28;20524;-83
2021/07/30 06:53:40;;;;;;;15.65;4.30;;;21.10;96.40;;;;;;5064872;28;20040;-82
2021/07/30 06:56:13;;;;;;;14.15;5.68;;;21.30;95.70;;;;;;5063903;28;20123;-82
2021/07/30 06:58:40;;;;;;;13.18;5.47;;;21.40;95.50;;;;;;5065220;28;20041;-83
2021/07/30 07:01:06;;;;;;;9.95;4.65;;;21.50;95.40;;;;;;5063601;28;20048;-82
2021/07/30 07:03:32;;;;;;;10.43;5.05;;;21.50;94.70;;;;;;5063490;28;20561;-83
2021/07/30 07:05:59;;;;;;;7.45;4.43;;;21.70;94.90;;;;;;5063723;28;20045;-83
2021/07/30 07:08:25;;;;;;;11.05;4.90;;;21.80;95.10;;;;;;5062148;28;20123;-83
2021/07/30 07:10:51;;;;;;;8.82;4.97;;;21.90;94.70;;;;;;5063598;28;20040;-82
2021/07/30 07:13:16;;;;;;;11.07;4.97;;;22.10;95.10;;;;;;5063616;28;20044;-82
2021/07/30 07:15:43;;;;;;;13.63;4.85;;;22.20;94.30;;;;;;5076642;28;20071;-82
2021/07/30 07:18:10;;;;;;;13.52;5.10;;;22.60;94.20;;;;;;5064520;28;20135;-81
2021/07/30 07:20:35;;;;;;;9.80;4.95;;;22.10;93.90;;;;;;5061502;28;20082;-82
2021/07/30 07:23:01;;;;;;;12.30;5.20;;;22.20;94.20;;;;;;5062702;28;20028;-82
2021/07/30 07:25:27;;;;;;;11.60;5.70;;;22.30;94.20;;;;;;5061320;28;20043;-81
2021/07/30 07:27:53;;;;;;;14.63;4.90;;;22.30;95.00;;;;;;5062537;28;20139;-81
2021/07/30 07:30:19;;;;;;;10.32;4.32;;;22.10;94.20;;;;;;5061544;28;20553;-81
2021/07/30 07:32:45;;;;;;;9.80;4.65;;;22.20;94.60;;;;;;5062125;28;20044;-80
2021/07/30 07:35:11;;;;;;;11.40;4.88;;;22.10;94.70;;;;;;5062226;28;20041;-80
2021/07/30 07:37:37;;;;;;;9.60;5.63;;;22.00;94.80;;;;;;5063297;28;20044;-81
2021/07/30 07:40:05;;;;;;;11.05;5.45;;;22.00;95.50;;;;;;5063321;28;20041;-81
2021/07/30 07:42:30;;;;;;;15.10;5.78;;;21.90;94.90;;;;;;5063073;28;20083;-81
2021/07/30 07:44:56;;;;;;;12.13;4.82;;;21.90;95.00;;;;;;5063132;28;20524;-80
2021/07/30 07:47:22;;;;;;;13.85;5.50;;;21.80;95.10;;;;;;5058934;28;20033;-80
2021/07/30 07:49:49;;;;;;;15.25;5.15;;;21.80;95.60;;;;;;5061585;28;20037;-81
2021/07/30 07:52:14;;;;;;;11.45;5.13;;;21.80;95.50;;;;;;5062052;28;20102;-81
2021/07/30 07:54:40;;;;;;;15.88;6.70;;;21.80;95.70;;;;;;5062336;28;20119;-80
2021/07/30 07:57:06;;;;;;;13.35;4.93;;;21.90;96.00;;;;;;5063897;28;20048;-81
2021/07/30 07:59:36;;;;;;;11.55;5.22;;;21.90;95.80;;;;;;5059517;28;20044;-80
2021/07/30 08:02:06;;;;;;;10.30;5.30;;;21.90;95.20;;;;;;5063263;28;20055;-80
2021/07/30 08:04:32;;;;;;;15.13;5.05;;;21.90;95.50;;;;;;5061252;28;20040;-80
2021/07/30 08:06:59;;;;;;;13.40;6.38;;;22.10;95.70;;;;;;5063622;28;20087;-80
2021/07/30 08:09:25;;;;;;;12.10;5.65;;;22.00;95.30;;;;;;5063797;28;20067;-80
2021/07/30 08:11:51;;;;;;;14.00;5.90;;;22.00;95.80;;;;;;5063118;28;20482;-80
2021/07/30 08:14:16;;;;;;;15.75;6.10;;;22.10;95.20;;;;;;5063515;28;20045;-80
2021/07/30 08:16:42;;;;;;;7.72;4.57;;;22.30;96.00;;;;;;5062115;28;20483;-81
2021/07/30 08:19:08;;;;;;;13.48;5.45;;;22.30;96.00;;;;;;5063634;28;20033;-80
2021/07/30 08:21:33;;;;;;;10.57;4.63;;;22.30;95.70;;;;;;5061966;28;20072;-81
2021/07/30 08:23:59;;;;;;;9.73;4.70;;;22.30;95.60;;;;;;5064356;28;20675;-81
2021/07/30 08:26:25;;;;;;;21.13;5.45;;;22.30;96.20;;;;;;5062360;28;20704;-80
2021/07/30 08:28:50;;;;;;;12.38;4.55;;;22.10;95.40;;;;;;5062213;28;20119;-81
2021/07/30 08:31:23;;;;;;;15.35;4.22;;;22.00;95.70;;;;;;5063798;28;20040;-80
2021/07/30 08:33:49;;;;;;;15.15;4.55;;;21.90;95.40;;;;;;5058967;28;20049;-80
2021/07/30 08:36:15;;;;;;;12.70;4.50;;;21.90;95.80;;;;;;5062984;28;20047;-80
2021/07/30 08:38:40;;;;;;;12.48;4.07;;;21.90;95.70;;;;;;5063263;28;20444;-80
2021/07/30 08:41:07;;;;;;;11.82;3.72;;;21.90;95.40;;;;;;5060320;28;20107;-80
2021/07/30 08:43:33;;;;;;;10.63;4.95;;;21.90;96.10;;;;;;5062521;28;20036;-81
2021/07/30 08:45:59;;;;;;;8.73;3.80;;;22.00;96.40;;;;;;5060303;28;20099;-81
2021/07/30 08:48:24;;;;;;;14.02;5.00;;;22.10;96.10;;;;;;5063107;28;20036;-80
2021/07/30 08:50:51;;;;;;;15.45;5.53;;;22.20;96.30;;;;;;5062218;28;20100;-80
2021/07/30 08:53:22;;;;;;;12.68;5.22;;;22.10;95.10;;;;;;5062328;28;20044;-80
2021/07/30 08:55:48;;;;;;;11.10;4.57;;;22.10;95.60;;;;;;5063785;28;20032;-80
2021/07/30 08:58:14;;;;;;;12.70;4.75;;;22.00;94.40;;;;;;5061663;28;20044;-80
2021/07/30 09:00:40;;;;;;;13.88;5.35;;;22.10;96.40;;;;;;5062389;28;20044;-80
2021/07/30 09:03:06;;;;;;;13.70;5.80;;;22.10;95.10;;;;;;5062064;28;20541;-80
2021/07/30 09:05:33;;;;;;;18.20;4.90;;;22.20;95.20;;;;;;5062321;28;20667;-80
2021/07/30 09:08:04;;;;;;;15.32;4.90;;;22.20;94.90;;;;;;5058928;28;20043;-80
2021/07/30 09:10:41;;;;;;;9.38;3.65;;;22.20;95.00;;;;;;5064867;28;20553;-80
2021/07/30 09:13:25;;;;;;;10.93;4.22;;;22.30;93.30;;;;;;5064413;28;20068;-80
2021/07/30 09:16:01;;;;;;;12.50;4.15;;;22.30;92.10;;;;;;5064133;28;20120;-80
2021/07/30 09:18:39;;;;;;;9.25;4.05;;;22.20;93.20;;;;;;5065015;28;20167;-80
2021/07/30 09:21:32;;;;;;;7.85;3.95;;;22.10;93.80;;;;;;5068107;28;20136;-79
2021/07/30 09:24:12;;;;;;;12.13;4.25;;;21.90;93.20;;;;;;5065781;28;20041;-81
2021/07/30 09:26:37;;;;;;;12.98;3.78;;;21.90;94.70;;;;;;5064952;28;20040;-82
2021/07/30 09:29:17;;;;;;;7.10;4.00;;;22.00;95.20;;;;;;5064081;28;21306;-82
2021/07/30 09:31:54;;;;;;;11.75;5.43;;;22.00;94.20;;;;;;5065298;28;20032;-82
2021/07/30 09:34:28;;;;;;;12.90;4.22;;;22.10;93.60;;;;;;5067339;28;20058;-81
2021/07/30 09:36:55;;;;;;;10.77;4.47;;;22.20;94.50;;;;;;5066877;28;20047;-80
2021/07/30 09:39:33;;;;;;;8.27;3.95;;;22.20;93.50;;;;;;5066662;28;20045;-81
2021/07/30 09:42:10;;;;;;;9.35;3.92;;;22.20;93.70;;;;;;5065460;28;20044;-81
2021/07/30 09:44:50;;;;;;;13.40;5.07;;;22.30;94.90;;;;;;5064349;28;20032;-82
2021/07/30 09:47:29;;;;;;;12.45;5.22;;;22.20;94.10;;;;;;5065690;28;20044;-81
2021/07/30 09:50:07;;;;;;;9.82;3.75;;;22.20;93.00;;;;;;5062951;28;20500;-81
2021/07/30 09:52:36;;;;;;;19.83;4.35;;;22.00;93.00;;;;;;5064727;28;20049;-81
2021/07/30 09:55:05;;;;;;;7.88;3.63;;;21.90;92.40;;;;;;5063146;28;20469;-80
2021/07/30 09:57:32;;;;;;;15.23;4.50;;;21.80;94.10;;;;;;5064022;28;20049;-81
2021/07/30 10:00:07;;;;;;;11.05;4.22;;;21.80;94.40;;;;;;5063920;28;20030;-80
2021/07/30 10:02:35;;;;;;;8.75;3.75;;;21.90;93.80;;;;;;5061484;28;20147;-82
2021/07/30 10:05:02;;;;;;;14.25;4.13;;;21.80;92.60;;;;;;5063321;28;20048;-81
2021/07/30 10:07:30;;;;;;;8.18;3.35;;;21.80;93.00;;;;;;5065169;28;20040;-81
2021/07/30 10:10:08;;;;;;;7.38;3.00;;;21.90;94.70;;;;;;5062147;28;20147;-82
2021/07/30 10:12:36;;;;;;;7.57;2.95;;;22.00;93.60;;;;;;5060634;28;20097;-82
2021/07/30 10:15:04;;;;;;;6.75;3.40;;;22.20;93.50;;;;;;5062168;28;20040;-82
2021/07/30 10:17:32;;;;;;;8.20;3.58;;;22.20;92.10;;;;;;5064926;28;20040;-82
2021/07/30 10:20:08;;;;;;;6.70;3.47;;;22.30;93.10;;;;;;5060187;28;20041;-81
2021/07/30 10:22:40;;;;;;;13.13;3.40;;;22.30;94.10;;;;;;5065478;28;20048;-82
2021/07/30 10:25:09;;;;;;;7.85;3.30;;;22.40;93.30;;;;;;5060389;28;20646;-81
2021/07/30 10:27:42;;;;;;;8.27;3.85;;;22.30;92.80;;;;;;5063230;28;20032;-80
2021/07/30 10:30:15;;;;;;;9.50;3.53;;;22.30;92.80;;;;;;5060934;28;20048;-81
2021/07/30 10:32:48;;;;;;;7.18;3.22;;;22.30;92.80;;;;;;5060122;28;21763;-82
2021/07/30 10:35:16;;;;;;;6.97;3.63;;;22.20;93.70;;;;;;5062045;28;20580;-81
2021/07/30 10:37:42;;;;;;;10.23;3.72;;;22.20;93.60;;;;;;5062897;28;20033;-83
2021/07/30 10:40:16;;;;;;;10.00;3.55;;;22.30;93.70;;;;;;5063809;28;20051;-81
2021/07/30 10:43:02;;;;;;;7.60;3.43;;;22.50;92.50;;;;;;5063351;28;20055;-81
2021/07/30 10:45:29;;;;;;;;;;;22.60;91.40;;;;;;5064911;28;20047;-82
2021/07/30 10:48:13;;;;;;;8.35;3.10;;;22.70;94.30;;;;;;5060525;28;19921;-83
2021/07/30 10:50:43;;;;;;;7.75;3.28;;;22.90;91.30;;;;;;5058209;28;20082;-82
2021/07/30 10:53:34;;;;;;;7.32;3.50;;;22.90;92.80;;;;;;5060379;28;20047;-82
2021/07/30 10:56:02;;;;;;;7.28;3.15;;;22.90;89.80;;;;;;5061381;28;20448;-83
2021/07/30 10:58:40;;;;;;;6.80;3.38;;;22.90;91.90;;;;;;5062932;28;20109;-81
2021/07/30 11:01:10;;;;;;;8.05;3.25;;;23.00;92.30;;;;;;5062281;28;20033;-82
2021/07/30 11:03:56;;;;;;;7.72;3.63;;;23.00;91.30;;;;;;5061628;28;20752;-89
2021/07/30 11:06:24;;;;;;;9.07;3.80;;;23.20;91.80;;;;;;5067090;28;20040;-90
2021/07/30 11:09:04;;;;;;;11.93;3.40;;;23.50;93.50;;;;;;5066928;28;20082;-86
2021/07/30 11:11:50;;;;;;;13.63;3.97;;;23.70;92.80;;;;;;5066574;28;20067;-87
2021/07/30 11:14:19;;;;;;;8.98;3.60;;;23.70;92.50;;;;;;5065991;28;20047;-84
2021/07/30 11:16:46;;;;;;;7.40;2.90;;;23.70;90.70;;;;;;5064636;28;20135;-84
2021/07/30 11:19:13;;;;;;;5.32;2.92;;;23.70;92.20;;;;;;5066017;28;20401;-85
2021/07/30 11:21:39;;;;;;;7.28;2.28;;;23.70;92.70;;;;;;5065553;28;20071;-85
2021/07/30 11:24:06;;;;;;;9.05;3.10;;;23.60;90.10;;;;;;5064475;28;20053;-85
2021/07/30 11:26:33;;;;;;;11.27;2.70;;;23.70;92.90;;;;;;5065339;28;22462;-84
2021/07/30 11:29:05;;;;;;;10.95;2.47;;;23.80;91.70;;;;;;5065064;28;20049;-84
2021/07/30 11:31:31;;;;;;;10.70;2.85;;;23.70;90.40;;;;;;5064404;28;20040;-84
2021/07/30 11:33:57;;;;;;;6.30;2.80;;;23.40;89.40;;;;;;5060798;28;20044;-85
2021/07/30 11:36:23;;;;;;;3.17;1.67;;;23.30;89.60;;;;;;5063799;28;20048;-85
2021/07/30 11:38:53;;;;;;;9.18;2.38;;;23.10;90.20;;;;;;5063723;28;20049;-84
2021/07/30 11:41:21;;;;;;;5.60;2.67;;;23.00;90.80;;;;;;5063537;28;20047;-84
2021/07/30 11:44:00;;;;;;;7.97;2.53;;;22.90;91.40;;;;;;5062994;28;20036;-84
2021/07/30 11:46:31;;;;;;;16.02;2.75;;;22.90;93.40;;;;;;5062725;28;20089;-83
2021/07/30 11:48:58;;;;;;;5.78;2.30;;;23.00;93.80;;;;;;5062177;28;20048;-85
2021/07/30 11:51:25;;;;;;;12.40;2.60;;;23.10;94.70;;;;;;5064629;28;20099;-85
2021/07/30 11:53:53;;;;;;;15.55;2.58;;;23.10;92.00;;;;;;5061708;28;20063;-85
2021/07/30 11:56:20;;;;;;;7.95;2.40;;;23.10;93.10;;;;;;5064015;28;20033;-88
2021/07/30 11:58:55;;;;;;;9.65;2.47;;;23.10;94.00;;;;;;5064719;28;20028;-87
2021/07/30 12:01:20;;;;;;;9.50;2.63;;;23.10;93.60;;;;;;5066099;28;20053;-87
2021/07/30 12:04:07;;;;;;;5.57;2.80;;;23.00;92.40;;;;;;5066798;28;20486;-87
2021/07/30 12:06:51;;;;;;;6.07;2.08;;;22.90;92.80;;;;;;5064428;28;20675;-87
2021/07/30 12:09:18;;;;;;;6.70;2.17;;;22.90;91.50;;;;;;5066439;28;20078;-88
2021/07/30 12:11:49;;;;;;;6.65;2.03;;;22.80;91.70;;;;;;5067429;28;20048;-87
2021/07/30 12:14:15;;;;;;;11.85;2.88;;;22.80;93.00;;;;;;5064994;28;20181;-88
2021/07/30 12:16:42;;;;;;;9.25;2.25;;;22.80;94.30;;;;;;5062874;28;20040;-87
2021/07/30 12:19:08;;;;;;;6.50;2.83;;;22.90;94.00;;;;;;5065773;28;20040;-87
2021/07/30 12:21:33;;;;;;;5.30;1.85;;;22.90;93.00;;;;;;5067054;28;20493;-87
2021/07/30 12:24:06;;;;;;;4.28;1.80;;;22.90;93.00;;;;;;5065547;28;20493;-87
2021/07/30 12:26:33;;;;;;;8.30;2.20;;;22.80;93.60;;;;;;5067987;28;20051;-88
2021/07/30 12:28:59;;;;;;;10.88;1.85;;;22.80;93.00;;;;;;5066558;28;20052;-88
2021/07/30 12:31:25;;;;;;;5.05;2.30;;;22.80;93.60;;;;;;5063606;28;20375;-88
2021/07/30 12:34:19;;;;;;;6.15;1.58;;;22.80;93.50;;;;;;5064715;28;20048;-87
2021/07/30 12:36:45;;;;;;;6.25;1.88;;;22.90;94.60;;;;;;5067128;28;20033;-86
2021/07/30 12:39:11;;;;;;;12.93;2.35;;;22.90;93.00;;;;;;5067727;28;20093;-86
2021/07/30 12:41:37;;;;;;;8.02;2.28;;;23.10;93.80;;;;;;5067385;28;20104;-87
2021/07/30 12:44:14;;;;;;;5.10;1.73;;;23.10;94.00;;;;;;5066910;28;20044;-87